Main page
METAR-TAF:

METAR-TAF

Airports :

Kilimanjaro International Airport

Kilimanjaro, Tanzania

latitude: 03-25S, longitude: 037-04E, elevation: 891 m

Current weather observation

The report was made 1 hour and 53 minutes ago, at 19:00 UTC
Wind 10 kt from the East/Southeast
Temperature 24°C
Humidity 69%
Pressure 1019 hPa
Visibility 10 km or more
Broken clouds at a height of 2500 ft

METAR: HTKJ 191900Z 12010KT 9999 BKN025 24/18 Q1019 NOSIG

Time: 23:53 (20:53 UTC)

Forecast

The report was made 3 hours and 53 minutes ago, at 17:00 UTC
Forecast valid from 19 at 18 UTC to 20 at 18 UTC
Wind 5 kt from the East
Visibility 10 km or more
Scattered clouds at a height of 2500 ft
Becoming
from 19 at 20 UTC to 19 at 23 UTC
Broken clouds at a height of 2400 ft

TAF: HTKJ 191700Z 1918/2018 09005KT 9999 SCT025 BECMG 1920/1923 BKN024

Weather observations and forecasts of more than 4000 airports (METAR and TAF reports).

The available stations are represented by yellow and red dots on the map.

Hover mouse over dot to see the name of the station.

Then click to see weather observations and forecasts.

To change the map : click on the green buttons with a black cross to zoom in, on the green button with a dash to zoom out, or on the green arrows for adjacent maps.


METAR-TAF: